Time;durP1;ratioP1;P1;durP2;ratioP2;P2;SDS_P1;SDS_P2;PMS_P1;PMS_P2;Temp;Humidity;BMP_temperature;BMP_pressure;BME280_temperature;BME280_humidity;BME280_pressure;Samples;Min_cycle;Max_cycle;Signal;HPM_P1;HPM_P2
2021/09/27 00:00:49;;;;;;;7.60;5.05;;;;;;;;;;4881867;28;20030;-59
2021/09/27 00:03:15;;;;;;;9.77;5.40;;;;;;;;;;4885314;28;20033;-59
2021/09/27 00:05:40;;;;;;;8.68;5.57;;;;;;;;;;4881688;28;20042;-59
2021/09/27 00:08:06;;;;;;;7.82;5.57;;;;;;;;;;4884350;28;21222;-60
2021/09/27 00:10:35;;;;;;;9.20;5.43;;;;;;;;;;4896381;28;20403;-60
2021/09/27 00:13:00;;;;;;;9.00;5.15;;;;;;;;;;4883022;28;20048;-60
2021/09/27 00:15:30;;;;;;;11.23;5.85;;;;;;;;;;4881455;28;20337;-59
2021/09/27 00:17:56;;;;;;;8.43;5.15;;;;;;;;;;4882285;28;20038;-59
2021/09/27 00:20:21;;;;;;;9.73;5.37;;;;;;;;;;4884996;28;20025;-60
2021/09/27 00:22:48;;;;;;;10.50;5.97;;;;;;;;;;4882923;28;20285;-59
2021/09/27 00:25:14;;;;;;;8.15;6.10;;;;;;;;;;4883443;28;20160;-59
2021/09/27 00:27:39;;;;;;;10.68;6.65;;;;;;;;;;4880020;28;20049;-59
2021/09/27 00:30:05;;;;;;;11.93;6.77;;;;;;;;;;4883066;28;20730;-59
2021/09/27 00:32:30;;;;;;;12.27;7.10;;;;;;;;;;4884720;28;20852;-59
2021/09/27 00:34:56;;;;;;;11.77;7.10;;;;;;;;;;4880074;28;20621;-60
2021/09/27 00:37:21;;;;;;;11.40;6.53;;;;;;;;;;4885436;28;20084;-60
2021/09/27 00:39:47;;;;;;;8.63;7.00;;;;;;;;;;4886842;28;20041;-59
2021/09/27 00:42:12;;;;;;;8.17;6.23;;;;;;;;;;4890023;28;20176;-60
2021/09/27 00:44:37;;;;;;;8.73;6.72;;;;;;;;;;4885760;28;20888;-60
2021/09/27 00:47:03;;;;;;;9.77;7.00;;;;;;;;;;4886661;28;20937;-58
2021/09/27 00:49:28;;;;;;;9.27;6.93;;;;;;;;;;4879924;28;24328;-61
2021/09/27 00:51:54;;;;;;;8.93;6.72;;;;;;;;;;4888043;28;20614;-60
2021/09/27 00:54:21;;;;;;;10.82;6.68;;;;;;;;;;4887007;28;20571;-60
2021/09/27 00:56:48;;;;;;;9.98;6.78;;;;;;;;;;4884637;28;20696;-61
2021/09/27 00:59:14;;;;;;;10.10;7.40;;;;;;;;;;4886234;28;20041;-60
2021/09/27 01:01:39;;;;;;;12.60;6.93;;;;;;;;;;4900180;28;20030;-60
2021/09/27 01:04:05;;;;;;;9.15;7.10;;;;;;;;;;4883003;28;20548;-59
2021/09/27 01:06:37;;;;;;;9.18;7.40;;;;;;;;;;4900436;28;20817;-60
2021/09/27 01:09:21;;;;;;;9.63;6.85;;;;;;;;;;4883058;28;20574;-60
2021/09/27 01:12:05;;;;;;;9.48;7.28;;;;;;;;;;4885794;28;20026;-58
2021/09/27 01:14:39;;;;;;;10.82;7.72;;;;;;;;;;4886195;28;20654;-59
2021/09/27 01:17:13;;;;;;;9.95;7.45;;;;;;;;;;4900108;28;20037;-59
2021/09/27 01:19:39;;;;;;;11.63;7.63;;;;;;;;;;4881162;28;20045;-60
2021/09/27 01:22:08;;;;;;;11.15;7.40;;;;;;;;;;4888640;28;20018;-60
2021/09/27 01:24:33;;;;;;;;;;;;;;;;;;4889186;28;20660;-59
2021/09/27 01:27:09;;;;;;;10.85;7.22;;;;;;;;;;4886435;28;19917;-61
2021/09/27 01:29:37;;;;;;;12.27;7.93;;;;;;;;;;4885835;28;20044;-60
2021/09/27 01:32:16;;;;;;;9.38;7.05;;;;;;;;;;4885117;28;20341;-60
2021/09/27 01:35:00;;;;;;;10.95;7.85;;;;;;;;;;4888444;28;20025;-60
2021/09/27 01:37:30;;;;;;;11.52;8.18;;;;;;;;;;4900039;28;20030;-60
2021/09/27 01:39:55;;;;;;;;;;;;;;;;;;4887396;28;20034;-60
2021/09/27 01:42:39;;;;;;;11.10;8.00;;;;;;;;;;4886750;28;19918;-60
2021/09/27 01:45:11;;;;;;;10.27;7.35;;;;;;;;;;4886259;28;20029;-59
2021/09/27 01:47:44;;;;;;;10.40;8.07;;;;;;;;;;4886367;28;20108;-60
2021/09/27 01:50:13;;;;;;;12.75;8.07;;;;;;;;;;4885788;28;20029;-59
2021/09/27 01:52:57;;;;;;;11.43;8.10;;;;;;;;;;4876238;28;20040;-59
2021/09/27 01:55:31;;;;;;;13.75;8.32;;;;;;;;;;4887124;28;20041;-60
2021/09/27 01:57:56;;;;;;;11.15;8.45;;;;;;;;;;4895181;28;20421;-60
2021/09/27 02:00:21;;;;;;;12.77;8.47;;;;;;;;;;4970341;28;20888;-59
2021/09/27 02:02:46;;;;;;;10.07;8.00;;;;;;;;;;4885415;28;24231;-59
2021/09/27 02:05:15;;;;;;;12.67;8.23;;;;;;;;;;4884849;28;20770;-60
2021/09/27 02:07:57;;;;;;;11.65;7.97;;;;;;;;;;4886287;28;20920;-60
2021/09/27 02:10:24;;;;;;;10.57;7.90;;;;;;;;;;4887157;28;20038;-59
2021/09/27 02:12:53;;;;;;;11.80;8.32;;;;;;;;;;4886473;28;20663;-59
2021/09/27 02:15:26;;;;;;;15.65;7.97;;;;;;;;;;4883170;28;20545;-60
2021/09/27 02:18:00;;;;;;;10.90;7.90;;;;;;;;;;4886990;28;20069;-60
2021/09/27 02:20:29;;;;;;;12.23;7.95;;;;;;;;;;4887816;28;20484;-59
2021/09/27 02:23:33;;;;;;;11.68;8.60;;;;;;;;;;4883513;28;20034;-60
2021/09/27 02:25:58;;;;;;;11.23;8.25;;;;;;;;;;4808795;29;20035;-60
2021/09/27 02:28:24;;;;;;;12.03;8.13;;;;;;;;;;4804804;29;24728;-60
2021/09/27 02:30:52;;;;;;;10.18;7.53;;;;;;;;;;4846352;28;20350;-58
2021/09/27 02:33:18;;;;;;;14.60;7.63;;;;;;;;;;4888545;28;20029;-60
2021/09/27 02:35:47;;;;;;;10.95;6.93;;;;;;;;;;4970298;28;20038;-60
2021/09/27 02:38:12;;;;;;;10.68;7.30;;;;;;;;;;4884142;28;20443;-61
2021/09/27 02:40:37;;;;;;;10.30;6.93;;;;;;;;;;4884929;28;20440;-59
2021/09/27 02:43:05;;;;;;;9.67;7.00;;;;;;;;;;4883916;28;20387;-58
2021/09/27 02:45:30;;;;;;;11.13;7.50;;;;;;;;;;4886198;28;20848;-60
2021/09/27 02:47:55;;;;;;;10.40;7.30;;;;;;;;;;4886531;28;20037;-59
2021/09/27 02:50:23;;;;;;;12.03;7.27;;;;;;;;;;4886215;28;21005;-60
2021/09/27 02:52:48;;;;;;;11.27;7.53;;;;;;;;;;4883089;28;20315;-59
2021/09/27 02:55:16;;;;;;;9.63;6.43;;;;;;;;;;4884593;28;20065;-59
2021/09/27 02:57:41;;;;;;;10.13;6.97;;;;;;;;;;4883568;28;24884;-60
2021/09/27 03:00:07;;;;;;;11.47;7.13;;;;;;;;;;4901769;28;20128;-60
2021/09/27 03:02:38;;;;;;;14.18;7.45;;;;;;;;;;4876031;28;21093;-58
2021/09/27 03:05:22;;;;;;;12.15;7.85;;;;;;;;;;4883112;28;20459;-60
2021/09/27 03:07:47;;;;;;;9.43;6.82;;;;;;;;;;4884376;28;20034;-59
2021/09/27 03:10:39;;;;;;;13.13;8.07;;;;;;;;;;4886023;28;20058;-57
2021/09/27 03:13:09;;;;;;;11.55;7.32;;;;;;;;;;4861385;28;20863;-59
2021/09/27 03:15:52;;;;;;;10.90;7.43;;;;;;;;;;4884597;28;20246;-59
2021/09/27 03:18:33;;;;;;;13.85;8.40;;;;;;;;;;4886816;28;20104;-59
2021/09/27 03:21:10;;;;;;;10.40;7.43;;;;;;;;;;4885153;28;20199;-58
2021/09/27 03:23:40;;;;;;;10.32;7.22;;;;;;;;;;4881488;28;20030;-59
2021/09/27 03:26:15;;;;;;;10.13;7.55;;;;;;;;;;4882467;28;21059;-60
2021/09/27 03:28:49;;;;;;;10.98;8.05;;;;;;;;;;4887164;28;20128;-60
2021/09/27 03:31:33;;;;;;;10.88;8.07;;;;;;;;;;4885044;28;20563;-60
2021/09/27 03:34:04;;;;;;;11.98;8.07;;;;;;;;;;4886267;28;20691;-59
2021/09/27 03:36:48;;;;;;;11.25;7.70;;;;;;;;;;4880417;28;20084;-59
2021/09/27 03:39:13;;;;;;;10.23;7.13;;;;;;;;;;4881691;28;20116;-59
2021/09/27 03:41:44;;;;;;;10.13;7.38;;;;;;;;;;4886597;28;20026;-59
2021/09/27 03:44:30;;;;;;;10.82;6.97;;;;;;;;;;4884737;28;20042;-61
2021/09/27 03:46:57;;;;;;;8.48;5.93;;;;;;;;;;4881424;28;20186;-59
2021/09/27 03:49:30;;;;;;;9.35;6.10;;;;;;;;;;4886129;28;20037;-60
2021/09/27 03:52:02;;;;;;;9.50;6.03;;;;;;;;;;4883811;28;20369;-59
2021/09/27 03:54:37;;;;;;;9.38;6.03;;;;;;;;;;4884069;28;20560;-60
2021/09/27 03:57:09;;;;;;;9.07;6.38;;;;;;;;;;4879803;28;20032;-59
2021/09/27 03:59:49;;;;;;;10.15;6.20;;;;;;;;;;4883864;28;24232;-59
2021/09/27 04:02:14;;;;;;;9.10;5.95;;;;;;;;;;4884441;28;20034;-59
2021/09/27 04:04:39;;;;;;;11.45;5.97;;;;;;;;;;4883897;28;20855;-60
2021/09/27 04:07:11;;;;;;;10.85;6.78;;;;;;;;;;4884111;28;20686;-59
2021/09/27 04:09:59;;;;;;;8.57;6.35;;;;;;;;;;4880838;28;20093;-60
2021/09/27 04:12:25;;;;;;;11.40;7.30;;;;;;;;;;4876543;28;20792;-60
2021/09/27 04:15:09;;;;;;;8.97;6.57;;;;;;;;;;4882673;28;20781;-60
2021/09/27 04:17:40;;;;;;;9.05;6.43;;;;;;;;;;4883463;28;20570;-60
2021/09/27 04:20:17;;;;;;;18.52;7.72;;;;;;;;;;4884236;28;20034;-59
2021/09/27 04:22:44;;;;;;;9.88;6.55;;;;;;;;;;4883747;28;20483;-60
2021/09/27 04:25:18;;;;;;;12.05;6.88;;;;;;;;;;4881212;28;20034;-59
2021/09/27 04:27:46;;;;;;;13.50;7.15;;;;;;;;;;4883294;28;20645;-59
2021/09/27 04:30:11;;;;;;;10.48;7.13;;;;;;;;;;4882779;28;20383;-60
2021/09/27 04:32:55;;;;;;;10.40;6.67;;;;;;;;;;4885953;28;20310;-60
2021/09/27 04:35:34;;;;;;;9.80;6.53;;;;;;;;;;4884558;28;20276;-60
2021/09/27 04:37:59;;;;;;;9.40;6.72;;;;;;;;;;4885419;28;20041;-60
2021/09/27 04:40:48;;;;;;;9.20;6.80;;;;;;;;;;4885257;28;20030;-58
2021/09/27 04:43:22;;;;;;;10.02;6.80;;;;;;;;;;4872528;28;20529;-60
2021/09/27 04:46:00;;;;;;;11.50;6.85;;;;;;;;;;4878411;28;20034;-61
2021/09/27 04:48:33;;;;;;;13.25;7.28;;;;;;;;;;4883316;28;20549;-60
2021/09/27 04:51:09;;;;;;;9.20;6.53;;;;;;;;;;4886121;28;20033;-59
2021/09/27 04:53:53;;;;;;;10.82;6.63;;;;;;;;;;4883408;28;20807;-59
2021/09/27 04:56:38;;;;;;;11.45;7.07;;;;;;;;;;4878860;28;20029;-59
2021/09/27 04:59:06;;;;;;;9.93;6.32;;;;;;;;;;4883526;28;20066;-60
2021/09/27 05:01:31;;;;;;;9.73;7.00;;;;;;;;;;4884745;28;20534;-59
2021/09/27 05:04:09;;;;;;;9.63;6.95;;;;;;;;;;4883161;28;20039;-57
2021/09/27 05:06:40;;;;;;;11.07;8.57;;;;;;;;;;4895732;28;20429;-60
2021/09/27 05:09:24;;;;;;;11.73;7.97;;;;;;;;;;4882820;28;20077;-59
2021/09/27 05:11:50;;;;;;;15.23;8.35;;;;;;;;;;4882060;28;20030;-60
2021/09/27 05:14:18;;;;;;;14.25;8.48;;;;;;;;;;4884229;28;20397;-58
2021/09/27 05:16:52;;;;;;;11.75;8.15;;;;;;;;;;4881419;28;20034;-61
2021/09/27 05:19:24;;;;;;;11.70;7.65;;;;;;;;;;4876450;28;20140;-60
2021/09/27 05:21:58;;;;;;;14.52;8.00;;;;;;;;;;4882626;28;20113;-59
2021/09/27 05:24:27;;;;;;;12.48;7.68;;;;;;;;;;4886202;28;20021;-60
2021/09/27 05:27:09;;;;;;;9.88;7.35;;;;;;;;;;4887618;28;20030;-60
2021/09/27 05:29:53;;;;;;;11.82;7.70;;;;;;;;;;4884252;28;20064;-60
2021/09/27 05:32:27;;;;;;;10.77;7.75;;;;;;;;;;4886723;28;21384;-59
2021/09/27 05:35:11;;;;;;;10.25;7.35;;;;;;;;;;4887683;28;20649;-59
2021/09/27 05:37:44;;;;;;;10.68;6.75;;;;;;;;;;4889147;28;20037;-57
2021/09/27 05:40:09;;;;;;;11.82;7.25;;;;;;;;;;4887592;28;20064;-60
2021/09/27 05:42:47;;;;;;;9.03;6.73;;;;;;;;;;4887297;28;20034;-57
2021/09/27 05:45:25;;;;;;;12.15;6.53;;;;;;;;;;4884763;28;20096;-58
2021/09/27 05:48:01;;;;;;;9.82;6.55;;;;;;;;;;4885688;28;20648;-61
2021/09/27 05:50:38;;;;;;;13.65;6.97;;;;;;;;;;4887169;28;20436;-60
2021/09/27 05:53:06;;;;;;;13.13;6.90;;;;;;;;;;4887571;28;20561;-60
2021/09/27 05:55:34;;;;;;;10.35;7.18;;;;;;;;;;4885790;28;20041;-60
2021/09/27 05:58:22;;;;;;;10.10;6.75;;;;;;;;;;4889441;28;20293;-60
2021/09/27 06:00:48;;;;;;;9.75;6.50;;;;;;;;;;4872117;28;20434;-59
2021/09/27 06:03:22;;;;;;;10.23;5.95;;;;;;;;;;4887836;28;20036;-59
2021/09/27 06:05:48;;;;;;;9.95;6.70;;;;;;;;;;4959801;28;20032;-60
2021/09/27 06:08:19;;;;;;;10.35;6.68;;;;;;;;;;4880672;28;20034;-59
2021/09/27 06:10:49;;;;;;;10.85;6.80;;;;;;;;;;4889964;28;20033;-60
2021/09/27 06:13:17;;;;;;;11.77;7.45;;;;;;;;;;4889095;28;20029;-60
2021/09/27 06:15:52;;;;;;;10.43;6.85;;;;;;;;;;4886088;28;20034;-59
2021/09/27 06:18:33;;;;;;;9.73;6.93;;;;;;;;;;4888958;28;20864;-60
2021/09/27 06:21:17;;;;;;;9.75;6.88;;;;;;;;;;4888101;28;23614;-60
2021/09/27 06:23:49;;;;;;;14.05;7.00;;;;;;;;;;4886834;28;20669;-59
2021/09/27 06:26:14;;;;;;;9.93;6.35;;;;;;;;;;4886432;28;21624;-60
2021/09/27 06:28:40;;;;;;;8.80;6.45;;;;;;;;;;4884099;28;20030;-60
2021/09/27 06:31:19;;;;;;;14.20;7.03;;;;;;;;;;4893232;28;20029;-59
2021/09/27 06:34:03;;;;;;;11.75;6.90;;;;;;;;;;4878777;28;20908;-59
2021/09/27 06:36:31;;;;;;;8.60;6.50;;;;;;;;;;4883312;28;20769;-59
2021/09/27 06:38:58;;;;;;;10.90;6.43;;;;;;;;;;4885640;28;20038;-59
2021/09/27 06:41:24;;;;;;;10.73;7.28;;;;;;;;;;4882581;28;20947;-61
2021/09/27 06:43:51;;;;;;;12.40;7.22;;;;;;;;;;4884993;28;23516;-60
2021/09/27 06:46:18;;;;;;;10.70;7.10;;;;;;;;;;4879658;28;20037;-60
2021/09/27 06:48:43;;;;;;;12.77;6.88;;;;;;;;;;4883298;28;20036;-61
2021/09/27 06:51:09;;;;;;;11.27;7.10;;;;;;;;;;4883036;28;20025;-60
2021/09/27 06:53:34;;;;;;;12.82;7.38;;;;;;;;;;4884023;28;20860;-59
2021/09/27 06:56:00;;;;;;;14.43;7.80;;;;;;;;;;4884327;28;20358;-63
2021/09/27 06:58:25;;;;;;;11.48;7.25;;;;;;;;;;4888226;28;20117;-58
2021/09/27 07:00:51;;;;;;;12.35;8.13;;;;;;;;;;4886950;28;20117;-60
2021/09/27 07:03:17;;;;;;;13.07;7.75;;;;;;;;;;4890895;28;20561;-58
2021/09/27 07:05:42;;;;;;;10.07;7.30;;;;;;;;;;4889678;28;20034;-60
2021/09/27 07:08:08;;;;;;;12.20;7.28;;;;;;;;;;4889513;28;20040;-59
2021/09/27 07:10:33;;;;;;;15.18;7.60;;;;;;;;;;4891373;28;20715;-60
2021/09/27 07:12:58;;;;;;;14.15;8.10;;;;;;;;;;4888437;28;20063;-60
2021/09/27 07:15:24;;;;;;;16.65;8.18;;;;;;;;;;4886084;28;20034;-59
2021/09/27 07:17:49;;;;;;;11.10;7.35;;;;;;;;;;4890697;28;20100;-60
2021/09/27 07:20:17;;;;;;;10.70;7.63;;;;;;;;;;4889896;28;20941;-58
2021/09/27 07:22:43;;;;;;;12.82;8.10;;;;;;;;;;4885163;28;21387;-58
2021/09/27 07:25:09;;;;;;;11.65;7.05;;;;;;;;;;4885122;28;20034;-59
2021/09/27 07:27:35;;;;;;;13.73;8.02;;;;;;;;;;4888100;28;20732;-59
2021/09/27 07:30:00;;;;;;;13.13;7.40;;;;;;;;;;4886933;28;20041;-60
2021/09/27 07:32:26;;;;;;;13.52;9.35;;;;;;;;;;4886890;28;20214;-60
2021/09/27 07:34:51;;;;;;;16.25;11.77;;;;;;;;;;4900162;28;20032;-60
2021/09/27 07:37:17;;;;;;;17.00;11.27;;;;;;;;;;4885790;28;20040;-60
2021/09/27 07:39:42;;;;;;;15.48;10.07;;;;;;;;;;4887086;28;20056;-60
2021/09/27 07:42:07;;;;;;;14.18;8.73;;;;;;;;;;4886132;28;20017;-59
2021/09/27 07:44:33;;;;;;;14.95;8.23;;;;;;;;;;4888391;28;20511;-60
2021/09/27 07:46:58;;;;;;;14.07;8.20;;;;;;;;;;4899226;28;20998;-59
2021/09/27 07:49:23;;;;;;;13.57;7.97;;;;;;;;;;4882953;28;20127;-60
2021/09/27 07:51:50;;;;;;;14.32;8.20;;;;;;;;;;4887935;28;20029;-59
2021/09/27 07:54:15;;;;;;;14.25;8.32;;;;;;;;;;4884234;28;20620;-59
2021/09/27 07:56:40;;;;;;;11.33;7.83;;;;;;;;;;4887574;28;20025;-60
2021/09/27 07:59:06;;;;;;;12.77;8.07;;;;;;;;;;4884225;28;20730;-60
2021/09/27 08:01:32;;;;;;;13.10;8.35;;;;;;;;;;4887284;28;20271;-59
2021/09/27 08:03:58;;;;;;;13.32;7.65;;;;;;;;;;4886884;28;20045;-60
2021/09/27 08:06:23;;;;;;;10.93;7.43;;;;;;;;;;4882682;28;24406;-59
2021/09/27 08:08:48;;;;;;;12.43;7.50;;;;;;;;;;4882919;28;20279;-60
2021/09/27 08:11:13;;;;;;;10.17;6.87;;;;;;;;;;4881952;28;20335;-60
2021/09/27 08:13:39;;;;;;;9.17;6.57;;;;;;;;;;4886192;28;20694;-60
2021/09/27 08:16:04;;;;;;;11.25;6.85;;;;;;;;;;4886721;28;20688;-60
2021/09/27 08:18:29;;;;;;;11.75;7.00;;;;;;;;;;4883371;28;20037;-60
2021/09/27 08:20:59;;;;;;;10.45;7.45;;;;;;;;;;4872359;28;20105;-59
2021/09/27 08:23:25;;;;;;;12.00;6.80;;;;;;;;;;4870715;28;20041;-60
2021/09/27 08:25:51;;;;;;;10.25;7.03;;;;;;;;;;4870377;28;20153;-59
2021/09/27 08:28:19;;;;;;;9.48;6.75;;;;;;;;;;4866988;28;20504;-59
2021/09/27 08:30:57;;;;;;;11.02;6.82;;;;;;;;;;4866537;28;20101;-59
2021/09/27 08:33:22;;;;;;;12.20;6.95;;;;;;;;;;4861836;28;20447;-60
2021/09/27 08:35:49;;;;;;;10.50;7.60;;;;;;;;;;4870024;28;20140;-59
2021/09/27 08:38:16;;;;;;;10.85;7.68;;;;;;;;;;4864627;28;20038;-61
2021/09/27 08:40:47;;;;;;;9.82;7.07;;;;;;;;;;4868670;28;20026;-60
2021/09/27 08:43:17;;;;;;;11.63;7.25;;;;;;;;;;4870635;28;20048;-58
2021/09/27 08:45:43;;;;;;;9.82;7.63;;;;;;;;;;4882306;28;20136;-59
2021/09/27 08:48:27;;;;;;;11.10;6.80;;;;;;;;;;4868944;28;20026;-61
2021/09/27 08:50:52;;;;;;;10.65;6.85;;;;;;;;;;4870140;28;20029;-58
2021/09/27 08:53:25;;;;;;;12.80;7.65;;;;;;;;;;4866444;28;20575;-60
2021/09/27 08:55:53;;;;;;;9.85;7.05;;;;;;;;;;4869714;28;20021;-59
2021/09/27 08:58:29;;;;;;;9.75;6.80;;;;;;;;;;4870373;28;20493;-60
2021/09/27 09:00:58;;;;;;;13.82;8.27;;;;;;;;;;4869471;28;20080;-59
2021/09/27 09:03:29;;;;;;;10.75;6.93;;;;;;;;;;4874990;28;21237;-60
2021/09/27 09:05:54;;;;;;;10.02;7.55;;;;;;;;;;4874757;28;20422;-59
2021/09/27 09:08:19;;;;;;;10.53;7.33;;;;;;;;;;4871715;28;20034;-60
2021/09/27 09:10:54;;;;;;;8.33;6.17;;;;;;;;;;4874762;28;20453;-58
2021/09/27 09:13:33;;;;;;;10.38;7.50;;;;;;;;;;4870167;28;20379;-60
2021/09/27 09:16:02;;;;;;;13.00;7.57;;;;;;;;;;4868960;28;20325;-58
2021/09/27 09:18:33;;;;;;;10.00;7.47;;;;;;;;;;4880859;28;20917;-59
2021/09/27 09:21:00;;;;;;;9.68;7.10;;;;;;;;;;4871316;28;20409;-58
2021/09/27 09:23:28;;;;;;;11.27;7.47;;;;;;;;;;4867909;28;20775;-60
2021/09/27 09:25:53;;;;;;;10.65;6.47;;;;;;;;;;4883909;28;20127;-59
2021/09/27 09:28:19;;;;;;;10.15;7.30;;;;;;;;;;4870038;28;20401;-60
2021/09/27 09:30:49;;;;;;;9.38;6.88;;;;;;;;;;4871694;28;20056;-59
2021/09/27 09:33:33;;;;;;;11.05;7.10;;;;;;;;;;4882770;28;24720;-60
2021/09/27 09:35:59;;;;;;;11.25;6.97;;;;;;;;;;4870660;28;20030;-60
2021/09/27 09:38:24;;;;;;;9.77;6.53;;;;;;;;;;4870559;28;21151;-60
2021/09/27 09:40:51;;;;;;;9.73;6.55;;;;;;;;;;4870983;28;21333;-60
2021/09/27 09:43:27;;;;;;;9.57;6.60;;;;;;;;;;4868542;28;20072;-60
2021/09/27 09:46:02;;;;;;;7.93;6.07;;;;;;;;;;4868986;28;20588;-59
2021/09/27 09:48:27;;;;;;;10.25;6.43;;;;;;;;;;4872557;28;20112;-60
2021/09/27 09:50:53;;;;;;;11.20;5.90;;;;;;;;;;4871686;28;20463;-60
2021/09/27 09:53:22;;;;;;;8.57;5.95;;;;;;;;;;4866106;28;20053;-59
2021/09/27 09:55:56;;;;;;;8.23;6.10;;;;;;;;;;4869765;28;20030;-61
2021/09/27 09:58:41;;;;;;;8.30;6.22;;;;;;;;;;4946425;28;20030;-60
2021/09/27 10:01:19;;;;;;;9.23;5.97;;;;;;;;;;4885052;28;20951;-61
2021/09/27 10:03:55;;;;;;;9.07;6.32;;;;;;;;;;4871235;28;20812;-59
2021/09/27 10:06:25;;;;;;;8.95;6.18;;;;;;;;;;4873375;28;20029;-62
2021/09/27 10:08:54;;;;;;;9.15;6.30;;;;;;;;;;4875309;28;20924;-60
2021/09/27 10:11:26;;;;;;;9.85;6.95;;;;;;;;;;4874116;28;20088;-59
2021/09/27 10:13:54;;;;;;;9.23;6.78;;;;;;;;;;4870251;28;20045;-58
2021/09/27 10:16:38;;;;;;;9.75;6.63;;;;;;;;;;4872319;28;20029;-59
2021/09/27 10:19:23;;;;;;;9.00;6.32;;;;;;;;;;4874174;28;20998;-59
2021/09/27 10:21:57;;;;;;;8.40;6.30;;;;;;;;;;4868320;28;20038;-60
2021/09/27 10:24:31;;;;;;;9.52;6.95;;;;;;;;;;4871276;28;20030;-59
2021/09/27 10:26:57;;;;;;;9.02;6.53;;;;;;;;;;4869783;28;20769;-59
2021/09/27 10:29:27;;;;;;;8.77;6.22;;;;;;;;;;4870232;28;20957;-59
2021/09/27 10:31:56;;;;;;;9.80;6.68;;;;;;;;;;4868987;28;20125;-57
2021/09/27 10:34:21;;;;;;;9.60;6.57;;;;;;;;;;4867768;28;20886;-58
2021/09/27 10:36:51;;;;;;;9.40;6.45;;;;;;;;;;4863283;28;20499;-59
2021/09/27 10:39:17;;;;;;;8.80;6.18;;;;;;;;;;4864039;28;20049;-58
2021/09/27 10:41:42;;;;;;;11.13;6.68;;;;;;;;;;4864846;28;20467;-58
2021/09/27 10:44:12;;;;;;;10.10;6.70;;;;;;;;;;4865173;28;20760;-59
2021/09/27 10:46:40;;;;;;;8.93;6.45;;;;;;;;;;4866737;28;20022;-58
2021/09/27 10:49:10;;;;;;;7.97;6.07;;;;;;;;;;4934387;28;20034;-59
2021/09/27 10:51:38;;;;;;;9.88;6.70;;;;;;;;;;4869608;28;20096;-59
2021/09/27 10:54:03;;;;;;;8.82;6.40;;;;;;;;;;4870979;28;20145;-59
2021/09/27 10:56:36;;;;;;;9.02;6.15;;;;;;;;;;4870627;28;20032;-58
2021/09/27 10:59:06;;;;;;;9.45;6.55;;;;;;;;;;4868619;28;20905;-59
2021/09/27 11:01:31;;;;;;;10.43;6.45;;;;;;;;;;4871958;28;20080;-59
2021/09/27 11:03:57;;;;;;;8.00;5.90;;;;;;;;;;4870267;28;20481;-59
2021/09/27 11:06:22;;;;;;;11.63;6.93;;;;;;;;;;4867762;28;20729;-57
2021/09/27 11:08:57;;;;;;;9.10;6.57;;;;;;;;;;4868353;28;20041;-58
2021/09/27 11:11:28;;;;;;;8.23;5.95;;;;;;;;;;4866994;28;20355;-59
2021/09/27 11:13:55;;;;;;;12.82;6.63;;;;;;;;;;4864928;28;20030;-58
2021/09/27 11:16:29;;;;;;;8.77;6.60;;;;;;;;;;4865962;28;20030;-59
2021/09/27 11:19:05;;;;;;;9.90;6.45;;;;;;;;;;4860683;28;20208;-60
2021/09/27 11:21:36;;;;;;;10.10;7.28;;;;;;;;;;4864559;28;20520;-58
2021/09/27 11:24:11;;;;;;;10.65;6.38;;;;;;;;;;4866358;28;20802;-58
2021/09/27 11:26:38;;;;;;;9.50;6.93;;;;;;;;;;4864572;28;20031;-59
2021/09/27 11:29:03;;;;;;;10.52;7.38;;;;;;;;;;4867983;28;20044;-58
2021/09/27 11:31:34;;;;;;;9.03;7.10;;;;;;;;;;4867578;28;20034;-57
2021/09/27 11:34:19;;;;;;;10.13;6.97;;;;;;;;;;4869324;28;20033;-57
2021/09/27 11:36:48;;;;;;;15.60;7.95;;;;;;;;;;4866525;28;20025;-57
2021/09/27 11:39:15;;;;;;;10.40;7.78;;;;;;;;;;4865844;28;20054;-56
2021/09/27 11:41:40;;;;;;;9.93;7.60;;;;;;;;;;4868804;28;20378;-58
2021/09/27 11:44:06;;;;;;;16.23;8.70;;;;;;;;;;4865572;28;20034;-58
2021/09/27 11:46:33;;;;;;;12.70;7.60;;;;;;;;;;4867774;28;20785;-57
2021/09/27 11:49:07;;;;;;;11.35;8.13;;;;;;;;;;4868744;28;20778;-58
2021/09/27 11:51:37;;;;;;;11.55;7.85;;;;;;;;;;4868867;28;20654;-57
2021/09/27 11:54:11;;;;;;;10.35;8.20;;;;;;;;;;4863121;28;20033;-57
2021/09/27 11:56:52;;;;;;;10.63;7.88;;;;;;;;;;4863837;28;20141;-58
2021/09/27 11:59:29;;;;;;;10.35;7.28;;;;;;;;;;4867395;28;21045;-58
2021/09/27 12:02:13;;;;;;;10.07;7.72;;;;;;;;;;4864251;28;20040;-58
2021/09/27 12:04:47;;;;;;;11.75;7.95;;;;;;;;;;4867668;28;20460;-57
2021/09/27 12:07:14;;;;;;;11.00;8.20;;;;;;;;;;4868043;28;20112;-56
2021/09/27 12:09:40;;;;;;;11.82;7.80;;;;;;;;;;4879298;28;20624;-58
2021/09/27 12:12:07;;;;;;;12.23;7.70;;;;;;;;;;4866613;28;20037;-58
2021/09/27 12:14:38;;;;;;;9.23;7.40;;;;;;;;;;4864551;28;20026;-57
2021/09/27 12:17:05;;;;;;;11.52;8.27;;;;;;;;;;4867814;28;20121;-58
2021/09/27 12:19:35;;;;;;;11.10;8.45;;;;;;;;;;4865317;28;20140;-61
2021/09/27 12:22:05;;;;;;;9.63;7.40;;;;;;;;;;4867007;28;20059;-58
2021/09/27 12:24:35;;;;;;;10.80;7.55;;;;;;;;;;4863062;28;20038;-57
2021/09/27 12:27:07;;;;;;;9.65;7.50;;;;;;;;;;4868140;28;20746;-56
2021/09/27 12:29:32;;;;;;;10.25;8.02;;;;;;;;;;4864583;28;20314;-57
2021/09/27 12:31:59;;;;;;;9.88;7.65;;;;;;;;;;4898990;28;20026;-57
2021/09/27 12:34:30;;;;;;;9.90;7.53;;;;;;;;;;4932006;28;24439;-57
2021/09/27 12:36:57;;;;;;;10.40;7.68;;;;;;;;;;4920523;28;20018;-57
2021/09/27 12:39:23;;;;;;;9.63;7.65;;;;;;;;;;4886663;28;20742;-57
2021/09/27 12:41:49;;;;;;;9.15;7.68;;;;;;;;;;4867533;28;24401;-58
2021/09/27 12:44:17;;;;;;;9.23;7.95;;;;;;;;;;4871727;28;20041;-58
2021/09/27 12:46:44;;;;;;;10.63;8.25;;;;;;;;;;4869592;28;20041;-57
2021/09/27 12:49:10;;;;;;;8.88;7.05;;;;;;;;;;4871273;28;20033;-56
2021/09/27 12:51:43;;;;;;;10.07;7.75;;;;;;;;;;4867927;28;20030;-58
2021/09/27 12:54:15;;;;;;;11.27;7.80;;;;;;;;;;4868980;28;20804;-57
2021/09/27 12:56:40;;;;;;;9.32;7.75;;;;;;;;;;4870378;28;20485;-57
2021/09/27 12:59:09;;;;;;;11.25;7.60;;;;;;;;;;4868987;28;20121;-56
2021/09/27 13:01:37;;;;;;;10.45;8.40;;;;;;;;;;4866499;28;22455;-57
2021/09/27 13:04:03;;;;;;;10.40;7.85;;;;;;;;;;4869935;28;20065;-57
2021/09/27 13:06:30;;;;;;;10.93;7.40;;;;;;;;;;4868478;28;21900;-56
2021/09/27 13:09:08;;;;;;;9.00;7.50;;;;;;;;;;4871518;28;20034;-56
2021/09/27 13:11:39;;;;;;;9.55;7.65;;;;;;;;;;4867058;28;20030;-58
2021/09/27 13:14:06;;;;;;;8.60;7.50;;;;;;;;;;4867573;28;20928;-57
2021/09/27 13:16:37;;;;;;;9.40;7.47;;;;;;;;;;4871125;28;20018;-57
2021/09/27 13:19:03;;;;;;;9.48;7.35;;;;;;;;;;4867926;28;21247;-57
2021/09/27 13:21:33;;;;;;;9.02;7.07;;;;;;;;;;4871476;28;20866;-58
2021/09/27 13:24:22;;;;;;;11.55;7.90;;;;;;;;;;4868351;28;20037;-57
2021/09/27 13:26:55;;;;;;;10.57;7.53;;;;;;;;;;4863271;28;20115;-61
2021/09/27 13:29:26;;;;;;;9.80;7.63;;;;;;;;;;4870566;28;20037;-57
2021/09/27 13:32:03;;;;;;;9.50;7.18;;;;;;;;;;4870618;28;20032;-58
2021/09/27 13:34:31;;;;;;;8.52;7.20;;;;;;;;;;4884181;28;20037;-58
2021/09/27 13:36:57;;;;;;;10.70;7.20;;;;;;;;;;4868672;28;20737;-56
2021/09/27 13:39:24;;;;;;;10.02;8.07;;;;;;;;;;4871134;28;20041;-58
2021/09/27 13:41:53;;;;;;;10.13;7.68;;;;;;;;;;4867554;28;20022;-55
2021/09/27 13:44:41;;;;;;;9.43;7.18;;;;;;;;;;4863800;28;20025;-56
2021/09/27 13:47:08;;;;;;;10.15;7.97;;;;;;;;;;4870727;28;20362;-56
2021/09/27 13:49:34;;;;;;;9.55;7.55;;;;;;;;;;4872567;28;20922;-57
2021/09/27 13:52:00;;;;;;;9.10;7.05;;;;;;;;;;4870206;28;20338;-57
2021/09/27 13:54:26;;;;;;;11.90;7.72;;;;;;;;;;4869481;28;20070;-58
2021/09/27 13:56:52;;;;;;;8.60;7.30;;;;;;;;;;4869225;28;20041;-58
2021/09/27 13:59:17;;;;;;;9.02;6.78;;;;;;;;;;4870769;28;20374;-57
2021/09/27 14:01:42;;;;;;;8.67;6.90;;;;;;;;;;4870956;28;20030;-57
2021/09/27 14:04:07;;;;;;;8.65;7.05;;;;;;;;;;4867158;28;20735;-57
2021/09/27 14:06:33;;;;;;;8.67;7.13;;;;;;;;;;4869404;28;21384;-57
2021/09/27 14:08:59;;;;;;;8.20;6.85;;;;;;;;;;4870789;28;20272;-58
2021/09/27 14:11:25;;;;;;;8.65;7.75;;;;;;;;;;4869623;28;20630;-57
2021/09/27 14:13:51;;;;;;;9.23;7.60;;;;;;;;;;4871133;28;20050;-57
2021/09/27 14:16:17;;;;;;;11.30;7.65;;;;;;;;;;4868250;28;21747;-58
2021/09/27 14:18:45;;;;;;;9.77;7.90;;;;;;;;;;4868522;28;20042;-58
2021/09/27 14:21:11;;;;;;;11.38;7.90;;;;;;;;;;4871118;28;21393;-58
2021/09/27 14:23:36;;;;;;;9.50;7.40;;;;;;;;;;4868270;28;20547;-58
2021/09/27 14:26:04;;;;;;;13.05;7.30;;;;;;;;;;4869414;28;20033;-58
2021/09/27 14:28:30;;;;;;;10.02;7.57;;;;;;;;;;4868615;28;20920;-58
2021/09/27 14:30:56;;;;;;;8.85;7.18;;;;;;;;;;4866500;28;20917;-57
2021/09/27 14:33:24;;;;;;;10.63;7.95;;;;;;;;;;4868492;28;20507;-60
2021/09/27 14:35:49;;;;;;;11.15;7.68;;;;;;;;;;4881942;28;21046;-58
2021/09/27 14:38:14;;;;;;;9.40;7.68;;;;;;;;;;4869690;28;20095;-57
2021/09/27 14:40:40;;;;;;;11.10;7.82;;;;;;;;;;4867802;28;20321;-58
2021/09/27 14:43:05;;;;;;;11.52;8.43;;;;;;;;;;4870120;28;20406;-58
2021/09/27 14:45:31;;;;;;;10.05;8.20;;;;;;;;;;4865693;28;20484;-57
2021/09/27 14:47:56;;;;;;;10.05;8.32;;;;;;;;;;4868480;28;20522;-57
2021/09/27 14:50:29;;;;;;;10.00;7.93;;;;;;;;;;4870630;28;20034;-57
2021/09/27 14:52:55;;;;;;;10.38;8.85;;;;;;;;;;4867003;28;20268;-57